sensor_id;sensor_type;location;lat;lon;timestamp;temperature;humidity
24207;DHT22;12351;52.284;9.160;2023-12-20T00:00:50;7.10;99.90
24207;DHT22;12351;52.284;9.160;2023-12-20T00:03:41;7.10;99.90
24207;DHT22;12351;52.284;9.160;2023-12-20T00:06:31;7.10;99.90
24207;DHT22;12351;52.284;9.160;2023-12-20T00:09:21;7.10;99.90
24207;DHT22;12351;52.284;9.160;2023-12-20T00:15:04;7.10;99.90
24207;DHT22;12351;52.284;9.160;2023-12-20T00:17:53;7.00;99.90
24207;DHT22;12351;52.284;9.160;2023-12-20T00:20:43;7.00;99.90
24207;DHT22;12351;52.284;9.160;2023-12-20T00:23:32;7.00;99.90
24207;DHT22;12351;52.284;9.160;2023-12-20T00:26:21;7.00;99.90
24207;DHT22;12351;52.284;9.160;2023-12-20T00:29:09;7.00;99.90
24207;DHT22;12351;52.284;9.160;2023-12-20T00:32:02;7.00;99.90
24207;DHT22;12351;52.284;9.160;2023-12-20T00:34:50;7.00;99.90
24207;DHT22;12351;52.284;9.160;2023-12-20T00:37:39;6.90;99.90
24207;DHT22;12351;52.284;9.160;2023-12-20T00:43:22;6.90;99.90
24207;DHT22;12351;52.284;9.160;2023-12-20T00:46:11;6.90;99.90
24207;DHT22;12351;52.284;9.160;2023-12-20T00:49:00;6.90;99.90
24207;DHT22;12351;52.284;9.160;2023-12-20T00:51:48;6.80;99.90
24207;DHT22;12351;52.284;9.160;2023-12-20T00:54:39;6.80;99.90
24207;DHT22;12351;52.284;9.160;2023-12-20T00:57:31;6.80;99.90
24207;DHT22;12351;52.284;9.160;2023-12-20T01:00:19;6.80;99.90
24207;DHT22;12351;52.284;9.160;2023-12-20T01:03:11;6.80;99.90
24207;DHT22;12351;52.284;9.160;2023-12-20T01:06:01;6.80;99.90
24207;DHT22;12351;52.284;9.160;2023-12-20T01:08:52;6.80;99.90
24207;DHT22;12351;52.284;9.160;2023-12-20T01:11:45;6.80;99.90
24207;DHT22;12351;52.284;9.160;2023-12-20T01:17:26;6.80;99.90
24207;DHT22;12351;52.284;9.160;2023-12-20T01:20:17;6.80;99.90
24207;DHT22;12351;52.284;9.160;2023-12-20T01:23:08;6.80;99.90
24207;DHT22;12351;52.284;9.160;2023-12-20T01:25:56;6.80;99.90
24207;DHT22;12351;52.284;9.160;2023-12-20T01:28:49;6.80;99.90
24207;DHT22;12351;52.284;9.160;2023-12-20T01:31:36;6.80;99.90
24207;DHT22;12351;52.284;9.160;2023-12-20T01:34:30;6.80;99.90
24207;DHT22;12351;52.284;9.160;2023-12-20T01:37:18;6.80;99.90
24207;DHT22;12351;52.284;9.160;2023-12-20T01:40:06;6.80;99.90
24207;DHT22;12351;52.284;9.160;2023-12-20T01:42:58;6.80;99.90
24207;DHT22;12351;52.284;9.160;2023-12-20T01:45:47;6.80;99.90
24207;DHT22;12351;52.284;9.160;2023-12-20T01:48:39;6.80;99.90
24207;DHT22;12351;52.284;9.160;2023-12-20T01:51:29;6.70;99.90
24207;DHT22;12351;52.284;9.160;2023-12-20T01:54:19;6.70;99.90
24207;DHT22;12351;52.284;9.160;2023-12-20T01:57:13;6.70;99.90
24207;DHT22;12351;52.284;9.160;2023-12-20T02:00:09;6.70;99.90
24207;DHT22;12351;52.284;9.160;2023-12-20T02:03:00;6.60;99.90
24207;DHT22;12351;52.284;9.160;2023-12-20T02:05:50;6.60;99.90
24207;DHT22;12351;52.284;9.160;2023-12-20T02:08:40;6.60;99.90
24207;DHT22;12351;52.284;9.160;2023-12-20T02:11:31;6.60;99.90
24207;DHT22;12351;52.284;9.160;2023-12-20T02:14:21;6.50;99.90
24207;DHT22;12351;52.284;9.160;2023-12-20T02:17:12;6.50;99.90
24207;DHT22;12351;52.284;9.160;2023-12-20T02:20:02;6.50;99.90
24207;DHT22;12351;52.284;9.160;2023-12-20T02:22:52;6.50;99.90
24207;DHT22;12351;52.284;9.160;2023-12-20T02:25:41;6.50;99.90
24207;DHT22;12351;52.284;9.160;2023-12-20T02:28:30;6.40;99.90
24207;DHT22;12351;52.284;9.160;2023-12-20T02:31:21;6.40;99.90
24207;DHT22;12351;52.284;9.160;2023-12-20T02:34:11;6.40;99.90
24207;DHT22;12351;52.284;9.160;2023-12-20T02:37:03;6.40;99.90
24207;DHT22;12351;52.284;9.160;2023-12-20T02:39:52;6.40;99.90
24207;DHT22;12351;52.284;9.160;2023-12-20T02:42:40;6.40;99.90
24207;DHT22;12351;52.284;9.160;2023-12-20T02:45:28;6.30;99.90
24207;DHT22;12351;52.284;9.160;2023-12-20T02:48:19;6.30;99.90
24207;DHT22;12351;52.284;9.160;2023-12-20T02:51:08;6.30;99.90
24207;DHT22;12351;52.284;9.160;2023-12-20T02:54:02;6.30;99.90
24207;DHT22;12351;52.284;9.160;2023-12-20T02:56:49;6.30;99.90
24207;DHT22;12351;52.284;9.160;2023-12-20T02:59:37;6.20;99.90
24207;DHT22;12351;52.284;9.160;2023-12-20T03:02:26;6.20;99.90
24207;DHT22;12351;52.284;9.160;2023-12-20T03:05:16;6.20;99.90
24207;DHT22;12351;52.284;9.160;2023-12-20T03:08:08;6.20;99.90
24207;DHT22;12351;52.284;9.160;2023-12-20T03:10:56;6.20;99.90
24207;DHT22;12351;52.284;9.160;2023-12-20T03:13:50;6.10;99.90
24207;DHT22;12351;52.284;9.160;2023-12-20T03:16:40;6.10;99.90
24207;DHT22;12351;52.284;9.160;2023-12-20T03:19:30;6.10;99.90
24207;DHT22;12351;52.284;9.160;2023-12-20T03:22:21;6.10;99.90
24207;DHT22;12351;52.284;9.160;2023-12-20T03:25:10;6.10;99.90
24207;DHT22;12351;52.284;9.160;2023-12-20T03:27:59;6.10;99.90
24207;DHT22;12351;52.284;9.160;2023-12-20T03:30:55;6.10;99.90
24207;DHT22;12351;52.284;9.160;2023-12-20T03:33:42;6.10;99.90
24207;DHT22;12351;52.284;9.160;2023-12-20T03:36:30;6.10;99.90
24207;DHT22;12351;52.284;9.160;2023-12-20T03:39:19;6.10;99.90
24207;DHT22;12351;52.284;9.160;2023-12-20T03:42:09;6.10;99.90
24207;DHT22;12351;52.284;9.160;2023-12-20T03:44:59;6.10;99.90
24207;DHT22;12351;52.284;9.160;2023-12-20T03:47:50;6.10;99.90
24207;DHT22;12351;52.284;9.160;2023-12-20T03:50:41;6.10;99.90
24207;DHT22;12351;52.284;9.160;2023-12-20T03:53:31;6.10;99.90
24207;DHT22;12351;52.284;9.160;2023-12-20T03:56:19;6.10;99.90
24207;DHT22;12351;52.284;9.160;2023-12-20T03:59:10;6.10;99.90
24207;DHT22;12351;52.284;9.160;2023-12-20T04:01:59;6.10;99.90
24207;DHT22;12351;52.284;9.160;2023-12-20T04:04:49;6.10;99.90
24207;DHT22;12351;52.284;9.160;2023-12-20T04:07:39;6.10;99.90
24207;DHT22;12351;52.284;9.160;2023-12-20T04:10:29;6.10;99.90
24207;DHT22;12351;52.284;9.160;2023-12-20T04:13:17;6.10;99.90
24207;DHT22;12351;52.284;9.160;2023-12-20T04:16:05;6.10;99.90
24207;DHT22;12351;52.284;9.160;2023-12-20T04:18:57;6.10;99.90
24207;DHT22;12351;52.284;9.160;2023-12-20T04:21:47;6.10;99.90
24207;DHT22;12351;52.284;9.160;2023-12-20T04:24:36;6.10;99.90
24207;DHT22;12351;52.284;9.160;2023-12-20T04:27:25;6.10;99.90
24207;DHT22;12351;52.284;9.160;2023-12-20T04:30:16;6.10;99.90
24207;DHT22;12351;52.284;9.160;2023-12-20T04:33:07;6.10;99.90
24207;DHT22;12351;52.284;9.160;2023-12-20T04:35:57;6.10;99.90
24207;DHT22;12351;52.284;9.160;2023-12-20T04:38:49;6.10;99.90
24207;DHT22;12351;52.284;9.160;2023-12-20T04:41:38;6.10;99.90
24207;DHT22;12351;52.284;9.160;2023-12-20T04:44:29;6.10;99.90
24207;DHT22;12351;52.284;9.160;2023-12-20T04:47:18;6.10;99.90
24207;DHT22;12351;52.284;9.160;2023-12-20T04:50:13;6.10;99.90
24207;DHT22;12351;52.284;9.160;2023-12-20T04:53:05;6.10;99.90
24207;DHT22;12351;52.284;9.160;2023-12-20T04:55:53;6.10;99.90
24207;DHT22;12351;52.284;9.160;2023-12-20T04:58:44;6.10;99.90
24207;DHT22;12351;52.284;9.160;2023-12-20T05:01:35;6.10;99.90
24207;DHT22;12351;52.284;9.160;2023-12-20T05:04:24;6.10;99.90
24207;DHT22;12351;52.284;9.160;2023-12-20T05:07:16;6.10;99.90
24207;DHT22;12351;52.284;9.160;2023-12-20T05:10:07;6.10;99.90
24207;DHT22;12351;52.284;9.160;2023-12-20T05:12:56;6.10;99.90
24207;DHT22;12351;52.284;9.160;2023-12-20T05:15:49;6.10;99.90
24207;DHT22;12351;52.284;9.160;2023-12-20T05:18:37;6.10;99.90
24207;DHT22;12351;52.284;9.160;2023-12-20T05:21:28;6.10;99.90
24207;DHT22;12351;52.284;9.160;2023-12-20T05:24:17;6.10;99.90
24207;DHT22;12351;52.284;9.160;2023-12-20T05:27:06;6.10;99.90
24207;DHT22;12351;52.284;9.160;2023-12-20T05:29:55;6.10;99.90
24207;DHT22;12351;52.284;9.160;2023-12-20T05:32:44;6.10;99.90
24207;DHT22;12351;52.284;9.160;2023-12-20T05:35:36;6.10;99.90
24207;DHT22;12351;52.284;9.160;2023-12-20T05:38:26;6.10;99.90
24207;DHT22;12351;52.284;9.160;2023-12-20T05:41:17;6.10;99.90
24207;DHT22;12351;52.284;9.160;2023-12-20T05:44:06;6.10;99.90
24207;DHT22;12351;52.284;9.160;2023-12-20T05:46:54;6.00;99.90
24207;DHT22;12351;52.284;9.160;2023-12-20T05:49:47;6.10;99.90
24207;DHT22;12351;52.284;9.160;2023-12-20T05:52:40;6.10;99.90
24207;DHT22;12351;52.284;9.160;2023-12-20T05:55:31;6.00;99.90
24207;DHT22;12351;52.284;9.160;2023-12-20T05:58:18;6.10;99.90
24207;DHT22;12351;52.284;9.160;2023-12-20T06:01:08;6.10;99.90
24207;DHT22;12351;52.284;9.160;2023-12-20T06:03:59;6.10;99.90
24207;DHT22;12351;52.284;9.160;2023-12-20T06:06:53;6.10;99.90
24207;DHT22;12351;52.284;9.160;2023-12-20T06:09:40;6.10;99.90
24207;DHT22;12351;52.284;9.160;2023-12-20T06:12:29;6.00;99.90
24207;DHT22;12351;52.284;9.160;2023-12-20T06:15:21;6.00;99.90
24207;DHT22;12351;52.284;9.160;2023-12-20T06:18:10;6.00;99.90
24207;DHT22;12351;52.284;9.160;2023-12-20T06:20:59;6.00;99.90
24207;DHT22;12351;52.284;9.160;2023-12-20T06:23:50;6.10;99.90
24207;DHT22;12351;52.284;9.160;2023-12-20T06:26:39;6.00;99.90
24207;DHT22;12351;52.284;9.160;2023-12-20T06:29:30;6.00;99.90
24207;DHT22;12351;52.284;9.160;2023-12-20T06:32:19;6.00;99.90
24207;DHT22;12351;52.284;9.160;2023-12-20T06:35:09;6.00;99.90
24207;DHT22;12351;52.284;9.160;2023-12-20T06:37:58;6.00;99.90
24207;DHT22;12351;52.284;9.160;2023-12-20T06:40:48;6.00;99.90
24207;DHT22;12351;52.284;9.160;2023-12-20T06:43:37;6.00;99.90
24207;DHT22;12351;52.284;9.160;2023-12-20T06:46:31;6.00;99.90
24207;DHT22;12351;52.284;9.160;2023-12-20T06:49:22;6.00;99.90
24207;DHT22;12351;52.284;9.160;2023-12-20T06:52:12;6.00;99.90
24207;DHT22;12351;52.284;9.160;2023-12-20T06:54:59;6.00;99.90
24207;DHT22;12351;52.284;9.160;2023-12-20T06:57:52;6.00;99.90
24207;DHT22;12351;52.284;9.160;2023-12-20T07:00:40;6.00;99.90
24207;DHT22;12351;52.284;9.160;2023-12-20T07:03:28;6.00;99.90
24207;DHT22;12351;52.284;9.160;2023-12-20T07:06:18;5.90;99.90
24207;DHT22;12351;52.284;9.160;2023-12-20T07:09:09;6.00;99.90
24207;DHT22;12351;52.284;9.160;2023-12-20T07:12:00;6.00;99.90
24207;DHT22;12351;52.284;9.160;2023-12-20T07:14:50;6.00;99.90
24207;DHT22;12351;52.284;9.160;2023-12-20T07:17:39;6.00;99.90
24207;DHT22;12351;52.284;9.160;2023-12-20T07:20:27;6.00;99.90
24207;DHT22;12351;52.284;9.160;2023-12-20T07:23:15;6.00;99.90
24207;DHT22;12351;52.284;9.160;2023-12-20T07:26:06;6.00;99.90
24207;DHT22;12351;52.284;9.160;2023-12-20T07:28:56;6.00;99.90
24207;DHT22;12351;52.284;9.160;2023-12-20T07:31:44;6.00;99.90
24207;DHT22;12351;52.284;9.160;2023-12-20T07:34:34;6.00;99.90
24207;DHT22;12351;52.284;9.160;2023-12-20T07:37:23;6.00;99.90
24207;DHT22;12351;52.284;9.160;2023-12-20T07:40:13;6.00;99.90
24207;DHT22;12351;52.284;9.160;2023-12-20T07:43:02;6.00;99.90
24207;DHT22;12351;52.284;9.160;2023-12-20T07:45:51;6.00;99.90
24207;DHT22;12351;52.284;9.160;2023-12-20T07:48:44;6.00;99.90
24207;DHT22;12351;52.284;9.160;2023-12-20T07:51:34;6.00;99.90
24207;DHT22;12351;52.284;9.160;2023-12-20T07:54:22;6.00;99.90
24207;DHT22;12351;52.284;9.160;2023-12-20T07:57:13;6.00;99.90
24207;DHT22;12351;52.284;9.160;2023-12-20T08:00:02;6.00;99.90
24207;DHT22;12351;52.284;9.160;2023-12-20T08:02:54;6.00;99.90
24207;DHT22;12351;52.284;9.160;2023-12-20T08:05:44;6.00;99.90
24207;DHT22;12351;52.284;9.160;2023-12-20T08:08:32;6.00;99.90
24207;DHT22;12351;52.284;9.160;2023-12-20T08:11:26;6.00;99.90
24207;DHT22;12351;52.284;9.160;2023-12-20T08:14:17;6.00;99.90
24207;DHT22;12351;52.284;9.160;2023-12-20T08:17:12;6.00;99.90
24207;DHT22;12351;52.284;9.160;2023-12-20T08:20:01;6.00;99.90
24207;DHT22;12351;52.284;9.160;2023-12-20T08:22:53;6.00;99.90
24207;DHT22;12351;52.284;9.160;2023-12-20T08:25:44;6.00;99.90
24207;DHT22;12351;52.284;9.160;2023-12-20T08:28:34;6.00;99.90
24207;DHT22;12351;52.284;9.160;2023-12-20T08:31:26;6.00;99.90
24207;DHT22;12351;52.284;9.160;2023-12-20T08:34:14;6.00;99.90
24207;DHT22;12351;52.284;9.160;2023-12-20T08:37:05;6.00;99.90
24207;DHT22;12351;52.284;9.160;2023-12-20T08:39:59;6.00;99.90
24207;DHT22;12351;52.284;9.160;2023-12-20T08:45:36;6.10;99.90
24207;DHT22;12351;52.284;9.160;2023-12-20T08:48:24;6.00;99.90
24207;DHT22;12351;52.284;9.160;2023-12-20T08:51:12;6.00;99.90
24207;DHT22;12351;52.284;9.160;2023-12-20T08:53:59;6.00;99.90
24207;DHT22;12351;52.284;9.160;2023-12-20T08:56:46;6.00;99.90
24207;DHT22;12351;52.284;9.160;2023-12-20T08:59:34;6.00;99.90
24207;DHT22;12351;52.284;9.160;2023-12-20T09:02:21;6.00;99.90
24207;DHT22;12351;52.284;9.160;2023-12-20T09:05:08;6.00;99.90
24207;DHT22;12351;52.284;9.160;2023-12-20T09:07:56;6.00;99.90
24207;DHT22;12351;52.284;9.160;2023-12-20T09:10:43;6.10;99.90
24207;DHT22;12351;52.284;9.160;2023-12-20T09:13:30;6.10;99.90
24207;DHT22;12351;52.284;9.160;2023-12-20T09:16:17;6.10;99.90
24207;DHT22;12351;52.284;9.160;2023-12-20T09:19:05;6.10;99.90
24207;DHT22;12351;52.284;9.160;2023-12-20T09:21:51;6.10;99.90
24207;DHT22;12351;52.284;9.160;2023-12-20T09:24:38;6.10;99.90
24207;DHT22;12351;52.284;9.160;2023-12-20T09:27:26;6.10;99.90
24207;DHT22;12351;52.284;9.160;2023-12-20T09:30:13;6.10;99.90
24207;DHT22;12351;52.284;9.160;2023-12-20T09:33:00;6.10;99.90
24207;DHT22;12351;52.284;9.160;2023-12-20T09:35:48;6.10;99.90
24207;DHT22;12351;52.284;9.160;2023-12-20T09:38:35;6.20;99.90
24207;DHT22;12351;52.284;9.160;2023-12-20T09:41:23;6.20;99.90
24207;DHT22;12351;52.284;9.160;2023-12-20T09:44:14;6.20;99.90
24207;DHT22;12351;52.284;9.160;2023-12-20T09:47:04;6.20;99.90
24207;DHT22;12351;52.284;9.160;2023-12-20T09:49:52;6.20;99.90
24207;DHT22;12351;52.284;9.160;2023-12-20T09:52:39;6.20;99.90
24207;DHT22;12351;52.284;9.160;2023-12-20T09:55:27;6.20;99.90
24207;DHT22;12351;52.284;9.160;2023-12-20T09:58:15;6.30;99.90
24207;DHT22;12351;52.284;9.160;2023-12-20T10:01:02;6.30;99.90
24207;DHT22;12351;52.284;9.160;2023-12-20T10:03:50;6.30;99.90
24207;DHT22;12351;52.284;9.160;2023-12-20T10:06:41;6.30;99.90
24207;DHT22;12351;52.284;9.160;2023-12-20T10:09:29;6.30;99.90
24207;DHT22;12351;52.284;9.160;2023-12-20T10:12:17;6.30;99.90
24207;DHT22;12351;52.284;9.160;2023-12-20T10:15:05;6.40;99.90
24207;DHT22;12351;52.284;9.160;2023-12-20T10:17:53;6.30;99.90
24207;DHT22;12351;52.284;9.160;2023-12-20T10:20:41;6.40;99.90
24207;DHT22;12351;52.284;9.160;2023-12-20T10:23:28;6.40;99.90
24207;DHT22;12351;52.284;9.160;2023-12-20T10:26:19;6.40;99.90
24207;DHT22;12351;52.284;9.160;2023-12-20T10:29:07;6.40;99.90
24207;DHT22;12351;52.284;9.160;2023-12-20T10:31:54;6.40;99.90
24207;DHT22;12351;52.284;9.160;2023-12-20T10:34:42;6.40;99.90
24207;DHT22;12351;52.284;9.160;2023-12-20T10:37:29;6.40;99.90
24207;DHT22;12351;52.284;9.160;2023-12-20T10:40:17;6.40;99.90
24207;DHT22;12351;52.284;9.160;2023-12-20T10:43:04;6.40;99.90
24207;DHT22;12351;52.284;9.160;2023-12-20T10:45:51;6.40;99.90
24207;DHT22;12351;52.284;9.160;2023-12-20T10:48:39;6.40;99.90
24207;DHT22;12351;52.284;9.160;2023-12-20T10:51:27;6.40;99.90
24207;DHT22;12351;52.284;9.160;2023-12-20T10:54:15;6.40;99.90
24207;DHT22;12351;52.284;9.160;2023-12-20T10:57:05;6.40;99.90
24207;DHT22;12351;52.284;9.160;2023-12-20T10:59:54;6.40;99.90
24207;DHT22;12351;52.284;9.160;2023-12-20T11:02:41;6.40;99.90
24207;DHT22;12351;52.284;9.160;2023-12-20T11:11:13;6.50;99.90
24207;DHT22;12351;52.284;9.160;2023-12-20T11:14:03;6.40;99.90
24207;DHT22;12351;52.284;9.160;2023-12-20T11:16:50;6.50;99.90
24207;DHT22;12351;52.284;9.160;2023-12-20T11:19:45;6.50;99.90
24207;DHT22;12351;52.284;9.160;2023-12-20T11:22:29;6.50;99.90
24207;DHT22;12351;52.284;9.160;2023-12-20T11:25:16;6.50;99.90
24207;DHT22;12351;52.284;9.160;2023-12-20T11:30:54;6.50;99.90
24207;DHT22;12351;52.284;9.160;2023-12-20T11:33:41;6.50;99.90
24207;DHT22;12351;52.284;9.160;2023-12-20T11:36:32;6.50;99.90
24207;DHT22;12351;52.284;9.160;2023-12-20T11:39:20;6.50;99.90
24207;DHT22;12351;52.284;9.160;2023-12-20T11:42:08;6.50;99.90
24207;DHT22;12351;52.284;9.160;2023-12-20T11:44:57;6.50;99.90
24207;DHT22;12351;52.284;9.160;2023-12-20T11:47:47;6.50;99.90
24207;DHT22;12351;52.284;9.160;2023-12-20T11:50:38;6.60;99.90
24207;DHT22;12351;52.284;9.160;2023-12-20T11:53:26;6.50;99.90
24207;DHT22;12351;52.284;9.160;2023-12-20T11:56:13;6.50;99.90
24207;DHT22;12351;52.284;9.160;2023-12-20T11:59:00;6.50;99.90
24207;DHT22;12351;52.284;9.160;2023-12-20T12:01:49;6.50;99.90
24207;DHT22;12351;52.284;9.160;2023-12-20T12:04:36;6.30;99.90
24207;DHT22;12351;52.284;9.160;2023-12-20T12:07:24;6.20;99.90
24207;DHT22;12351;52.284;9.160;2023-12-20T12:10:11;6.10;99.90
24207;DHT22;12351;52.284;9.160;2023-12-20T12:12:57;6.10;99.90
24207;DHT22;12351;52.284;9.160;2023-12-20T12:15:45;6.10;99.90
24207;DHT22;12351;52.284;9.160;2023-12-20T12:18:32;6.10;99.90
24207;DHT22;12351;52.284;9.160;2023-12-20T12:21:20;6.10;99.90
24207;DHT22;12351;52.284;9.160;2023-12-20T12:24:09;6.10;99.90
24207;DHT22;12351;52.284;9.160;2023-12-20T12:26:57;6.00;99.90
24207;DHT22;12351;52.284;9.160;2023-12-20T12:32:35;6.00;99.90
24207;DHT22;12351;52.284;9.160;2023-12-20T12:35:23;6.00;99.90
24207;DHT22;12351;52.284;9.160;2023-12-20T12:38:11;6.00;99.90
24207;DHT22;12351;52.284;9.160;2023-12-20T12:40:58;6.00;99.90
24207;DHT22;12351;52.284;9.160;2023-12-20T12:43:47;6.00;99.90
24207;DHT22;12351;52.284;9.160;2023-12-20T12:46:34;6.00;99.90
24207;DHT22;12351;52.284;9.160;2023-12-20T12:49:21;6.00;99.90
24207;DHT22;12351;52.284;9.160;2023-12-20T12:52:08;6.00;99.90
24207;DHT22;12351;52.284;9.160;2023-12-20T12:54:55;6.00;99.90
24207;DHT22;12351;52.284;9.160;2023-12-20T12:57:42;6.00;99.90
24207;DHT22;12351;52.284;9.160;2023-12-20T13:00:30;6.00;99.90
24207;DHT22;12351;52.284;9.160;2023-12-20T13:03:17;6.00;99.90
24207;DHT22;12351;52.284;9.160;2023-12-20T13:06:04;6.00;99.90
24207;DHT22;12351;52.284;9.160;2023-12-20T13:08:52;6.10;99.90
24207;DHT22;12351;52.284;9.160;2023-12-20T13:11:39;6.10;99.90
24207;DHT22;12351;52.284;9.160;2023-12-20T13:14:26;6.10;99.90
24207;DHT22;12351;52.284;9.160;2023-12-20T13:17:13;6.10;99.90
24207;DHT22;12351;52.284;9.160;2023-12-20T13:20:02;6.10;99.90
24207;DHT22;12351;52.284;9.160;2023-12-20T13:22:49;6.10;99.90
24207;DHT22;12351;52.284;9.160;2023-12-20T13:25:36;6.10;99.90
24207;DHT22;12351;52.284;9.160;2023-12-20T13:28:25;6.10;99.90
24207;DHT22;12351;52.284;9.160;2023-12-20T13:31:14;6.10;99.90
24207;DHT22;12351;52.284;9.160;2023-12-20T13:34:01;6.10;99.90
24207;DHT22;12351;52.284;9.160;2023-12-20T13:36:48;6.10;99.90
24207;DHT22;12351;52.284;9.160;2023-12-20T13:39:36;6.10;99.90
24207;DHT22;12351;52.284;9.160;2023-12-20T13:42:24;6.10;99.90
24207;DHT22;12351;52.284;9.160;2023-12-20T13:45:12;6.10;99.90
24207;DHT22;12351;52.284;9.160;2023-12-20T13:48:00;6.10;99.90
24207;DHT22;12351;52.284;9.160;2023-12-20T13:50:47;6.10;99.90
24207;DHT22;12351;52.284;9.160;2023-12-20T13:53:34;6.10;99.90
24207;DHT22;12351;52.284;9.160;2023-12-20T13:56:21;6.10;99.90
24207;DHT22;12351;52.284;9.160;2023-12-20T13:59:08;6.10;99.90
24207;DHT22;12351;52.284;9.160;2023-12-20T14:01:55;6.10;99.90
24207;DHT22;12351;52.284;9.160;2023-12-20T14:04:43;6.10;99.90
24207;DHT22;12351;52.284;9.160;2023-12-20T14:07:30;6.10;99.90
24207;DHT22;12351;52.284;9.160;2023-12-20T14:10:17;6.10;99.90
24207;DHT22;12351;52.284;9.160;2023-12-20T14:13:04;6.10;99.90
24207;DHT22;12351;52.284;9.160;2023-12-20T14:15:51;6.10;99.90
24207;DHT22;12351;52.284;9.160;2023-12-20T14:18:41;6.10;99.90
24207;DHT22;12351;52.284;9.160;2023-12-20T14:21:27;6.10;99.90
24207;DHT22;12351;52.284;9.160;2023-12-20T14:24:14;6.10;99.90
24207;DHT22;12351;52.284;9.160;2023-12-20T14:27:01;6.10;99.90
24207;DHT22;12351;52.284;9.160;2023-12-20T14:29:48;6.10;99.90
24207;DHT22;12351;52.284;9.160;2023-12-20T14:32:36;6.10;99.90
24207;DHT22;12351;52.284;9.160;2023-12-20T14:35:24;6.10;99.90
24207;DHT22;12351;52.284;9.160;2023-12-20T14:38:11;6.10;99.90
24207;DHT22;12351;52.284;9.160;2023-12-20T14:41:00;6.10;99.90
24207;DHT22;12351;52.284;9.160;2023-12-20T14:43:48;6.10;99.90
24207;DHT22;12351;52.284;9.160;2023-12-20T14:46:35;6.10;99.90
24207;DHT22;12351;52.284;9.160;2023-12-20T14:49:24;6.10;99.90
24207;DHT22;12351;52.284;9.160;2023-12-20T14:52:11;6.10;99.90
24207;DHT22;12351;52.284;9.160;2023-12-20T14:54:58;6.10;99.90
24207;DHT22;12351;52.284;9.160;2023-12-20T14:57:47;6.10;99.90
24207;DHT22;12351;52.284;9.160;2023-12-20T15:00:35;6.10;99.90
24207;DHT22;12351;52.284;9.160;2023-12-20T15:03:22;6.10;99.90
24207;DHT22;12351;52.284;9.160;2023-12-20T15:06:09;6.10;99.90
24207;DHT22;12351;52.284;9.160;2023-12-20T15:08:58;6.00;99.90
24207;DHT22;12351;52.284;9.160;2023-12-20T15:11:46;6.10;99.90
24207;DHT22;12351;52.284;9.160;2023-12-20T15:14:33;6.10;99.90
24207;DHT22;12351;52.284;9.160;2023-12-20T15:17:20;6.10;99.90
24207;DHT22;12351;52.284;9.160;2023-12-20T15:20:07;6.00;99.90
24207;DHT22;12351;52.284;9.160;2023-12-20T15:22:57;6.10;99.90
24207;DHT22;12351;52.284;9.160;2023-12-20T15:25:46;6.10;99.90
24207;DHT22;12351;52.284;9.160;2023-12-20T15:28:33;6.00;99.90
24207;DHT22;12351;52.284;9.160;2023-12-20T15:31:20;6.10;99.90
24207;DHT22;12351;52.284;9.160;2023-12-20T15:34:08;6.10;99.90
24207;DHT22;12351;52.284;9.160;2023-12-20T15:36:57;6.00;99.90
24207;DHT22;12351;52.284;9.160;2023-12-20T15:39:44;6.00;99.90
24207;DHT22;12351;52.284;9.160;2023-12-20T15:42:31;6.10;99.90
24207;DHT22;12351;52.284;9.160;2023-12-20T15:45:19;6.00;99.90
24207;DHT22;12351;52.284;9.160;2023-12-20T15:48:07;6.00;99.90
24207;DHT22;12351;52.284;9.160;2023-12-20T15:50:56;6.00;99.90
24207;DHT22;12351;52.284;9.160;2023-12-20T15:53:43;6.00;99.90
24207;DHT22;12351;52.284;9.160;2023-12-20T15:56:30;6.00;99.90
24207;DHT22;12351;52.284;9.160;2023-12-20T15:59:18;6.00;99.90
24207;DHT22;12351;52.284;9.160;2023-12-20T16:02:05;5.90;99.90
24207;DHT22;12351;52.284;9.160;2023-12-20T16:04:52;5.90;99.90
24207;DHT22;12351;52.284;9.160;2023-12-20T16:07:40;5.90;99.90
24207;DHT22;12351;52.284;9.160;2023-12-20T16:10:26;5.90;99.90
24207;DHT22;12351;52.284;9.160;2023-12-20T16:13:13;5.90;99.90
24207;DHT22;12351;52.284;9.160;2023-12-20T16:16:02;5.90;99.90
24207;DHT22;12351;52.284;9.160;2023-12-20T16:18:49;5.90;99.90
24207;DHT22;12351;52.284;9.160;2023-12-20T16:21:36;5.90;99.90
24207;DHT22;12351;52.284;9.160;2023-12-20T16:24:23;5.90;99.90
24207;DHT22;12351;52.284;9.160;2023-12-20T16:27:10;5.90;99.90
24207;DHT22;12351;52.284;9.160;2023-12-20T16:29:57;5.90;99.90
24207;DHT22;12351;52.284;9.160;2023-12-20T16:32:44;5.90;99.90
24207;DHT22;12351;52.284;9.160;2023-12-20T16:35:31;5.90;99.90
24207;DHT22;12351;52.284;9.160;2023-12-20T16:38:18;5.90;99.90
24207;DHT22;12351;52.284;9.160;2023-12-20T16:41:05;5.90;99.90
24207;DHT22;12351;52.284;9.160;2023-12-20T16:43:52;5.80;99.90
24207;DHT22;12351;52.284;9.160;2023-12-20T16:46:39;5.80;99.90
24207;DHT22;12351;52.284;9.160;2023-12-20T16:49:27;5.90;99.90
24207;DHT22;12351;52.284;9.160;2023-12-20T16:52:14;5.80;99.90
24207;DHT22;12351;52.284;9.160;2023-12-20T16:55:03;5.80;99.90
24207;DHT22;12351;52.284;9.160;2023-12-20T16:57:50;5.80;99.90
24207;DHT22;12351;52.284;9.160;2023-12-20T17:00:38;5.80;99.90
24207;DHT22;12351;52.284;9.160;2023-12-20T17:03:26;5.80;99.90
24207;DHT22;12351;52.284;9.160;2023-12-20T17:06:14;5.80;99.90
24207;DHT22;12351;52.284;9.160;2023-12-20T17:09:01;5.80;99.90
24207;DHT22;12351;52.284;9.160;2023-12-20T17:11:49;5.80;99.90
24207;DHT22;12351;52.284;9.160;2023-12-20T17:14:36;5.80;99.90
24207;DHT22;12351;52.284;9.160;2023-12-20T17:17:23;5.80;99.90
24207;DHT22;12351;52.284;9.160;2023-12-20T17:20:11;5.80;99.90
24207;DHT22;12351;52.284;9.160;2023-12-20T17:22:58;5.70;99.90
24207;DHT22;12351;52.284;9.160;2023-12-20T17:25:46;5.70;99.90
24207;DHT22;12351;52.284;9.160;2023-12-20T17:28:34;5.70;99.90
24207;DHT22;12351;52.284;9.160;2023-12-20T17:31:22;5.70;99.90
24207;DHT22;12351;52.284;9.160;2023-12-20T17:34:09;5.70;99.90
24207;DHT22;12351;52.284;9.160;2023-12-20T17:36:57;5.70;99.90
24207;DHT22;12351;52.284;9.160;2023-12-20T17:39:44;5.70;99.90
24207;DHT22;12351;52.284;9.160;2023-12-20T17:42:31;5.70;99.90
24207;DHT22;12351;52.284;9.160;2023-12-20T17:45:18;5.70;99.90
24207;DHT22;12351;52.284;9.160;2023-12-20T17:48:05;5.70;99.90
24207;DHT22;12351;52.284;9.160;2023-12-20T17:50:52;5.70;99.90
24207;DHT22;12351;52.284;9.160;2023-12-20T17:53:39;5.70;99.90
24207;DHT22;12351;52.284;9.160;2023-12-20T17:56:27;5.70;99.90
24207;DHT22;12351;52.284;9.160;2023-12-20T17:59:15;5.70;99.90
24207;DHT22;12351;52.284;9.160;2023-12-20T18:02:02;5.70;99.90
24207;DHT22;12351;52.284;9.160;2023-12-20T18:04:49;5.70;99.90
24207;DHT22;12351;52.284;9.160;2023-12-20T18:07:37;5.70;99.90
24207;DHT22;12351;52.284;9.160;2023-12-20T18:10:24;5.70;99.90
24207;DHT22;12351;52.284;9.160;2023-12-20T18:13:11;5.70;99.90
24207;DHT22;12351;52.284;9.160;2023-12-20T18:15:59;5.70;99.90
24207;DHT22;12351;52.284;9.160;2023-12-20T18:18:46;5.70;99.90
24207;DHT22;12351;52.284;9.160;2023-12-20T18:21:33;5.70;99.90
24207;DHT22;12351;52.284;9.160;2023-12-20T18:24:21;5.70;99.90